Aviation Digital Data Service (ADDS)

Output produced by METARs form (1837 UTC 18 June 2019)
found at http://www.aviationweather.gov/metar/data/
 
MMAA 181742Z 17006KT 8SM BKN300 32/24 A2988 RMK SLP111 57005 903 8/002 HZY CU E
TAF MMAA 181626Z 1818/1924 23008KT P6SM SCT030 SCT090 TX33/1820Z TN26/1912Z 
     FM190200 02006KT P6SM SCT020 SCT120 
     FM191600 20010KT P6SM SCT020 BKN300
       
MMAS 181747Z 29010KT 9SM FEW045 SCT230 27/10 A3029 RMK SLP089 8/106 HZY
TAF MMAS 181648Z 1818/1918 18010KT P6SM SCT030 BKN250 
     FM182200 20012KT 6SM VC RA BKN030CB 
     TEMPO 1823/1903 4SM TSRA 
     FM190400 00000KT P6SM SCT030 BKN080 OVC200 
     PROB40 1910/1914 5SM RA BKN020
       
MMSL 181740Z 10011KT 10SM SKC 30/19 A2995
TAF MMSL 181658Z 1818/1918 09010KT P6SM SKC 
     FM182100 28010KT P6SM SKC
       
MMSD 181741Z 09010KT 12SM SKC 35/12 A2991 RMK SLP111 58001 918
TAF MMSD 181658Z 1818/1918 14015KT P6SM SKC 
     FM190600 34005KT P6SM SKC
       
MMCP 181744Z 12015KT 7SM SCT030 SCT300 33/24 A2991 RMK SLP116 57003 915 8/101
TAF MMCP 181707Z 1818/1918 14015KT P6SM SCT030 
     FM182300 34010G20KT P6SM SCT030 
     FM190400 09010KT P6SM BKN250 
     FM191500 12015KT P6SM SCT015
       
MMUN 181746Z 13010KT 7SM SCT015 32/24 A3000 RMK SLP159 54000 912 8/100
TAF MMUN 181717Z 1818/1924 12020KT P6SM SCT015 BKN300 TX32/1819Z TN27/1919Z 
     FM190000 12010KT P6SM SCT015 BKN260 
     FM191700 12020KT P6SM SCT015 SCT120 BKN300
       
MMCM 181803Z RTD 13013KT 7SM SCT020 BKN100 32/25 A2995 RMK SLP143 5//// 923 8/220
TAF MMCM 181707Z 1818/1918 12015KT P6SM SCT020 
     FM190600 13015KT P6SM BKN015
       
MMCT 181741Z 17010KT 8SM BKN030 36/19 A2992 RMK 8/400
MMCU 181747Z 03008KT 10SM FEW030 BKN200 31/03 A3011 RMK SLP076 54000 914 8/101
TAF MMCU 181731Z 1818/1918 24010KT P6SM SCT030 SCT100 
     FM190400 29015KT P6SM SCT080 
     BECMG 1910/1911 35008KT
       
MMCE 181747Z 12015KT 7SM FEW020 SCT300 32/25 A2988 RMK SLP117 58005 914 8/108
TAF MMCE 181707Z 1818/1918 12012KT P6SM BKN300 
     FM182200 04010KT P6SM SCT020 BKN250 
     FM190600 12010KT P6SM BKN200 
     FM191300 12018KT P6SM SCT020
       
MMCS 181740Z 27009KT 10SM SKC 31/03 A3006 RMK SLP047 58002 909 ISOL AC E-SE
TAF MMCS 181731Z 1818/1918 26008G18KT P6SM SCT120 
     FM190200 27015KT P6SM SCT100 BKN260
       
MMCN 181741Z 17011KT 10SM SCT200 34/13 A2988 RMK SLP119 8/001 HZY
TAF MMCN 181658Z 1818/1918 16010KT P6SM SKC 
     FM182100 24012KT P6SM SCT200 
     FM190300 00000KT P6SM SKC
       
MMCV 181745Z 13008G21KT 4SM SKC 33/21 A2989 RMK SLP097 57013 967 HZY ISOL CU
TAF MMCV 181720Z 1818/1918 16015KT 4SM HZ SKC 
     FM182100 14012KT P6SM SCT030 
     PROB40 1900/1904 4SM TSRA BKN025CB 
     FM190600 00000KT 6SM HZ SCT100 
     FM191400 14015KT P6SM SKC
       
MMIA 181745Z 00000KT 8SM SCT020 SCT200 27/22 A3001 RMK SLP/// 5//// 9// 8/201
TAF MMIA 181648Z 1818/1918 23010KT P6SM SCT030 BKN100 
     FM190000 00000KT 6SM VC RA SCT020CB 
     PROB40 1902/1906 3SM TSRA BKN015CB 
     FM190600 00000KT P6SM SCT015 BKN100
       
MMCZ 181743Z 15010G20KT 8SM FEW015 34/23 A2997 RMK SLP155 54000 914 8/100 SC
TAF MMCZ 181717Z 1818/1924 14016KT P6SM SCT015 BKN200 
     FM190200 12008KT P6SM SCT015 BKN140 
     FM191800 12015KT P6SM SCT015 BKN120
       
MMCB 181756Z 14005KT 5SM SCT030 SCT080 BKN200 26/18 A3015 RMK 8/171 HZY
TAF MMCB 181636Z 1818/1918 00000KT 4SM HZ SCT010 BKN200 
     FM182000 20010KT P6SM SCT025 BKN250 
     TEMPO 1823/1903 4SM TSRA BKN020CB 
     FM190300 00000KT 5SM RA BKN020 OVC080 
     FM190600 00000KT 4SM HZ BKN010 
     TEMPO 1912/1916 2SM BR BKN005
       
MMCL 181745Z 17008KT 10SM SKC 30/17 A2989 RMK SLP128 58009 961 HZY
TAF MMCL 181705Z 1818/1918 24010KT P6SM SCT030 BKN240 
     FM190600 16005KT P6SM SCT030 BKN240
       
MMDO 181744Z 20010KT 10SM FEW030TCU SCT080 25/08 A3027 RMK SLP096 57002 918 8/230 ISOL CU
TAF MMDO 181658Z 1818/1918 18010KT P6SM SCT030 BKN080 
     FM182200 20010KT 6SM VC RA BKN030CB 
     TEMPO 1900/1904 4SM TSRA 
     FM190400 00000KT 5SM RA BKN020 OVC080 
     FM190600 00000KT P6SM BKN080
       
MMGL 181744Z 18005KT 10SM SCT025 24/15 A3022 RMK SLP088 57017 911 8/100 ISOL CI
TAF MMGL 181656Z 1818/1924 25005KT P6SM SCT030 BKN100 TX32/1822Z TN16/1912Z 
     TEMPO 1902/1906 4SM TSRA BKN015CB 
     FM190600 05005KT P6SM -RA BKN020 BKN090 
     FM191600 25006KT P6SM BKN030 BKN090
       
MMGM 181742Z 21010KT 10SM SCT210 31/24 A2986 RMK 8/007 HZY
TAF MMGM 181658Z 1818/1918 28010KT P6SM SCT025 
     FM190300 00000KT P6SM SKC
       
MMHO 181740Z 18008KT 10SM SKC 37/02 A2992 RMK SLP124 52005 917
TAF MMHO 181705Z 1818/1918 23014KT P6SM BKN300 
     FM190600 12006KT P6SM BKN240
       
MMBT 181645Z 00000KT 7SM BKN250 32/23 A2990 RMK 8/008
MMLP 181743Z 35009KT 10SM SKC 33/01 A2989 RMK SLP121 57004 913 ISOL CI FULYR 4QUAD
TAF MMLP 181705Z 1818/1918 34012KT P6SM BKN260 
     FM190200 18010KT P6SM BKN260
       
MMLO 181744Z 19005KT 9SM SCT030 BKN220 25/13 A3031 RMK SLP123 57004 914 8/508 HZY
TAF MMLO 181648Z 1818/1918 20010KT P6SM SCT300 BKN200 
     FM182200 20012KT 6SM VC RA BKN025CB 
     TEMPO 1822/1902 3SM TSRA 
     FM190400 00000KT 6SM RA BKN020 OVC080 
     PROB40 1906/1910 3SM RA 
     FM191200 00000KT P6SM SCT030 BKN080
       
MMLT 181746Z 04008KT 9SM SCT240 31/17 A2986 RMK SLP112 8/001 HZY
TAF MMLT 181658Z 1818/1918 03010KT P6SM SCT250 
     FM190600 06010KT P6SM SKC
       
MMLM 181743Z 16010KT 10SM FEW250 33/14 A2991 RMK SLP129 8/001
TAF MMLM 181658Z 1818/1918 10010KT P6SM SCT250 
     FM182000 28012KT P6SM SKC 
     FM190600 12010KT P6SM SKC
       
MMZO 181744Z 25010KT 8SM BKN100 BKN250 31/24 A2986 RMK SLP098 8/036 HZY
TAF MMZO 181656Z 1818/1918 24005KT P6SM SCT030 BKN250 
     FM190200 35005KT P6SM SCT020 BKN240
       
MMMA 181743Z 14012KT 7SM BKN023CB 33/26 A2991 RMK SLP129 52002 909 8/300 HZY
TAF MMMA 181720Z 1818/1918 14012KT P6SM BKN020CB 
     FM182000 14012G22KT P6SM SCT030 
     FM190300 12010KT P6SM SKC 
     FM191300 14010KT 5SM HZ BKN015
       
MMMZ 181746Z 23008KT 15SM FEW090 SCT240 34/19 A2990 RMK SLP128 57013 914 8/071
TAF MMMZ 181705Z 1818/1924 25010KT P6SM SCT030 BKN100 TX33/1819Z TN21/1912Z 
     FM190400 28005KT P6SM SCT030 BKN090 
     FM191800 16008KT P6SM SCT100 BKN260
       
MMMD 181745Z 13018KT 7SM BKN025 BKN300 35/23 A2993 RMK SLP137 57002 909 8/108
TAF MMMD 181717Z 1818/1924 13020KT P6SM BKN025 BKN300 TX35/1820Z TN24/1912Z 
     FM190200 13015KT 6SM HZ BKN020 BKN270 
     FM191800 13015KT P6SM BKN030 BKN300
       
MMML 181742Z 14005KT 10SM SKC 30/09 A2984 RMK SLP105 52007 927
TAF MMML 181705Z 1818/1918 30010KT P6SM SCT040 
     FM190600 12006KT P6SM SCT030
       
MMMX 181749Z 01005KT 7SM FEW020 SCT090 BKN200 24/09 A3032 NOSIG RMK SLP071 57006 907 8/134 HZY MDT CU SW
TAF MMMX 181626Z 1818/1924 06008KT P6SM SCT030 SCT090 BKN300 TX28/1821Z
TN16/1912Z 
     FM182200 06012G22KT 6SM HZ BKN030CB 
     TEMPO 1823/1903 3SM TSRA OVC015CB 
     FM190300 05010KT 5SM -RA HZ BKN020 OVC090 
     FM190600 08008KT 6SM HZ BKN020 BKN090 
     FM191600 04010KT P6SM SCT030 SCT090 
     FM192200 02010G20KT 6SM HZ BKN030CB
       
MMTO 181747Z 17008KT 6SM SCT020 BKN200 22/08 A3039 RMK SLP072 57002 912 8/101 HZY
TAF MMTO 181626Z 1818/1924 06008KT 6SM HZ BKN015 BKN080 TX24/1820Z TN12/1912Z 
     TEMPO 1822/1902 3SM TSRA BKN010CB 
     FM190200 06005KT 5SM -RA BR BKN012 BKN080 
     FM190600 10005KT 5SM BR HZ BKN010 
     TEMPO 1910/1914 2SM BR HZ 
     FM191500 10005KT 5SM HZ BKN015 
     FM191800 10008KT 6SM HZ BKN020 BKN090 
     TEMPO 1922/1924 4SM TSRA BKN010CB
       
MMMT 181748Z 02005KT 7SM SCT040 BKN100 32/27 A2987 RMK SLP190 52010 921 8/420
TAF MMMT 181707Z 1818/1918 02010KT P6SM SCT040 BKN200 
     FM190300 00000KT 5SM HZ BKN040 
     TEMPO 1910/1914 3SM TSRA BKN020CB
       
MMMV 181740Z 01008KT 6SM FEW120 32/15 A2996 RMK 8/040 HZY
TAF MMMV 181731Z 1818/1918 13010KT 6SM HZ SCT030 SCT100 
     FM190200 00000KT 5SM HZ SCT015 SCT100 
     TEMPO 1910/1914 3SM BR BKN010
       
MMAN 181740Z 11003KT 7SM FEW030 30/21 A2998 RMK SLP/// 5//// 9// 8/100 HZY ISOL CI
TAF MMAN 181731Z 1818/1918 12012KT P6SM BKN030 BKN090 
     FM190600 12006KT 6SM HZ BKN025 BKN080 
     TEMPO 1912/1914 07006KT 4SM BR HZ BKN015 
     FM191600 13006KT 6SM HZ SCT015 SCT090 BKN240
       
MMMY 181740Z 10008KT 6SM BKN030 32/22 A2992 RMK SLP/// 5//// 9// 8/500 HZY
TAF MMMY 181731Z 1818/1924 12012KT P6SM SCT030 SCT100 TX35/1821Z TN24/1912Z 
     FM190200 12007KT 6SM HZ SCT015 
     FM191000 13005KT 5SM BR HZ BKN012 
     FM191600 15010KT 6SM HZ BKN020
       
MMMM 181749Z 30010KT 8SM SCT030 SCT230 25/14 A3025 RMK SLP075 52013 901 8/102 HZY
TAF MMMM 181656Z 1818/1924 27010KT P6SM SCT030 BKN090 
     TEMPO 1820/1900 4SM TSRA BKN020CB 
     FM190000 00000KT 5SM -RA HZ BKN015CB 
     TEMPO 1902/1906 4SM TSRA BKN012CB 
     FM190600 00000KT 6SM HZ BKN015 BKN090 
     FM191800 23010KT P6SM SCT030 BKN090 
     TEMPO 1922/1924 4SM TSRA BKN015CB
       
MMNL 181741Z 11009KT 10SM SCT020 35/23 A2992 RMK SLP112 52001 907 8/100
TAF MMNL 181720Z 1818/1918 14012KT P6SM SCT020 
     FM190300 00000KT P6SM SCT040 
     FM191200 12010KT 4SM HZ OVC015 
     FM191600 12010KT P6SM SCT015
       
MMOX 181746Z 19004KT 10SM FEW030 SCT220 25/14 A3020 RMK SLP093 57016 906 8/101
TAF MMOX 181636Z 1818/1918 14010KT P6SM SCT030 BKN200 
     FM182100 14010KT P6SM BKN030 
     FM182300 14010KT 5SM VC RA BKN025CB BKN080 
     TEMPO 1900/1904 3SM TSRA 
     FM190400 00000KT P6SM SCT015 BKN080 
     FM191300 00000KT P6SM SCT025 BKN200
       
MMPG 181640Z 12006KT 8SM FEW100 33/23 A2995 RMK 8/050 HZY
TAF MMPG 181720Z 1818/1918 12010KT P6SM SCT030 BKN200 
     PROB40 1823/1903 6SM TSRA BKN030CB 
     FM190600 00000KT P6SM BKN200 
     FM191000 000000KT 5SM HZ BKN020
       
MMPA 181740Z 04004KT 4SM -RA BKN020TCU BKN280 32/27 A2991 RMK SLP113 57006 927 60005 8/208 -RA B40 -RA INTMT
TAF MMPA 181720Z 1818/1918 00000KT 5SM HZ BKN020 
     FM182100 06010KT 6SM HZ SKC 
     FM190900 00000KT 2SM BR OVC010 
     FM191500 00000KT 4SM HZ BKN015
       
MMPB 181743Z 18006KT 7SM FEW025 SCT220 22/11 A3034 RMK 8/102 HZY
TAF MMPB 181636Z 1818/1918 18010KT P6SM SCT025 BKN250 
     FM182100 14012KT P6SM BKN025 
     FM182300 14010KT 5SM VC RA BKN020CB OVC200 
     PROB40 1900/1904 3SM TSRA 
     FM190400 00000KT P6SM SCT015 BKN080 
     FM191200 00000KT 3SM BR BKN010 
     FM191400 00000KT 6SM HZ SCT015 BKN200
       
MMPS 181745Z 24005KT 10SM SKC 32/22 A2989 RMK CU N HZY
TAF MMPS 181636Z 1818/1918 23010KT P6SM SCT015 
     PROB40 1900/1904 5SM TSRA BKN015CB 
     FM190600 06010KT P6SM BKN200
       
MMPR 181743Z 25003KT 12SM BKN100 BKN250 30/22 A2989 RMK SLP120 57009 909 8/038
TAF MMPR 181656Z 1818/1924 23008KT P6SM SCT030 BKN100 BKN250 TX31/1818Z
TN26/1912Z 
     FM190200 00000KT P6SM SCT030 BKN120 BKN260 
     FM191800 23010KT P6SM SCT030 BKN100 BKN280
       
MMQT 181640Z 19004KT 5SM FEW020 BKN250 24/11 A3033 RMK 8/102 HZY
TAF MMQT 181648Z 1818/1918 23010KT 5SM HZ BKN020 
     TEMPO 1823/1903 4SM TSRA BKN020CB 
     FM190600 00000KT P6SM SCT015 BKN070 
     TEMPO 1912/1916 4SM HZ BKN015
       
MMRX 181743Z 14005KT 8SM SCT020 35/21 A2990 RMK SLP113 52020 916 8/500 HZY
TAF MMRX 181720Z 1818/1918 14010KT P6SM BKN020 
     FM182000 14015KT P6SM SCT030 
     FM190300 00000KT P6SM SKC 
     FM191000 00000KT 2SM BR BKN005 OVC010 
     FM191500 14010KT 5SM HZ BKN015
       
MMIO 181740Z 34006KT 10SM SKC 31/09 A3014 RMK CU
TAF MMIO 181731Z 1818/1918 03010KT P6SM SCT030 
     FM190000 25005KT P6SM SCT020 SCT200
       
MMSP 181745Z 00000KT 8SM FEW250 27/12 A3025 RMK SLP084 50003 917 8/001 HZY DSNT TCU 3 AND 4QDS
TAF MMSP 181656Z 1818/1924 12012KT P6SM SCT030 TX31/1821Z TN16/1912Z 
     FM190200 12008KT P6SM BKN030 
     FM191600 06010KT P6SM BKN090 BKN280
       
MMTM 181740Z E18014KT 7SM SCT010 BKN015 31/26 A2990 RMK SLP134 52004 920 8/100 HZY
TAF MMTM 181626Z 1818/1918 12010KT P6SM BKN020 BKN080 
     FM190200 12010KT 6SM HZ BKN015 
     FM191000 00000KT 4SM BR HZ SCT010 BKN020 
     FM191500 13005KT 6SM HZ BKN015
       
MMTP 181742Z 32008KT 10SM SKC 33/25 A2985 RMK SLP131 57005 903 CU TCU OVR MT
TAF MMTP 181717Z 1818/1924 25010KT P6SM SCT030 SCT120 
     FM190200 33005KT P6SM SCT015 SCT030 BKN240 
     FM191800 25010KT P6SM SCT030 BKN120
       
MMEP 181746Z 12008KT 12SM FEW045 BKN100 25/18 A3007 RMK SLP141 56013 916 8/570
TAF MMEP 181648Z 1818/1918 02010KT P6SM SCT030 BKN100 
     TEMPO 1823/1903 5SM TSRA BKN030CB 
     FM190600 00000KT P6SM BKN025 OVC080 
     PROB40 1910/1914 3SM RA BKN015CB
       
MMTJ 181745Z 26004KT 4SM OVC016 18/13 A3001 RMK SLP158 52007 911 8/5// HZY
TAF MMTJ 181705Z 1818/1924 30005KT 4SM HZ OVC012 TX20/1821Z TN15/1912Z 
     FM182000 26007KT P6SM OVC020 
     FM190600 25005KT 3SM BR HZ OVC010 
     FM191900 30008KT 5SM HZ OVC015
       
MMTC 181747Z 00000KT 10SM FEW025 35/14 A3004 RMK SLP038 57017 910 8/100
TAF MMTC 181731Z 1818/1918 09008KT P6SM SCT030 SCT100 
     FM190400 35012KT P6SM SCT020 SCT100 
     FM191400 24005KT P6SM SCT025 SCT100
       
MMTG 181741Z 09003KT 10SM SCT030 SCT300 31/21 A2994 RMK SLP109 57010 913 8/106 TCU FRMG
TAF MMTG 181717Z 1818/1918 12005KT P6SM SCT030 BKN120 
     TEMPO 1822/1902 4SM TSRA BKN015CB 
     FM190200 35005KT 5SM -RA BKN015 BKN080 VC CB 
     FM190600 00000KT 6SM HZ SCT030 BKN100 BKN300
       
MMPN 181746Z 20005KT 7SM SCT030TCU BKN120 BKN260 22/18 A3020 RMK SLP/// 5//// 9// 8/231 HZY
TAF MMPN 181648Z 1818/1918 18010KT P6SM SCT030 BKN200 
     FM182100 20010KT 6SM VC TSRA BKN030CB 
     TEMPO 1823/1902 3SM TSRA 
     FM190300 00000KT P6SM SCT020 BKN080 
     FM191200 00000KT 2SM BR BKN010 
     FM191500 00000KT 5SM HZ SCT020 BKN100
       
MMVR 181747Z 00000KT 5SM FEW010 SCT250 33/24 A2989 RMK SLP116 52007 939 8/104 HZY ISOL TCU
TAF MMVR 181626Z 1818/1918 08006KT 6SM HZ SCT020 SCT090 BKN200 TX34/1822Z
TN26/1912Z 
     FM190200 06005KT 5SM HZ SCT015 BKN080 BKN240 
     FM191500 35005KT 6SM HZ BKN018 BKN090
       
MMVA 181741Z 00000KT 7SM SCT012 SCT210 33/25 A2988 RMK SLP116 57010 911 8/101
TAF MMVA 181707Z 1818/1918 06010KT P6SM SCT015 BKN250 
     TEMPO 1823/1903 5SM VC TSRA BKN015CB 
     FM190600 09010KT 5SM HZ SCT010 
     FM191500 12012KT P6SM SCT020
       
MMZC 181743Z 00000KT 10SM SCT030 BKN150 24/10 A3030 RMK 8/130
TAF MMZC 181656Z 1818/1924 16010KT P6SM SCT030 BKN120 TX27/1821Z TN16/1912Z 
     FM190200 13010KT P6SM SCT030 BKN100 
     FM191500 10006KT P6SM SCT030 BKN100
       
MMZH 181744Z 23009KT 7SM FEW020 SCT100 BKN250 33/22 A2988 RMK SLP110 54000 904 8/132 HZY
TAF MMZH 181636Z 1818/1918 20010KT P6SM SCT020 BKN200 
     PROB40 1901/1905 5SM TSRA BKN015CB 
     FM190600 00000KT P6SM SCT015 BKN200 
     FM191500 00000KT P6SM SCT100 BKN200